< < Back
Terminal Aerodrome Forecast


Current Version              Previous Versions:   1  2  3  4  5  6  7  8  9  

Terminal Aerodrome Forecast

655
FTUS42 KFFC 242100 AAA
TAFPDK
TAF AMD
KPDK 242134Z 2422/2518 28005KT P6SM SKC
     FM250200 00000KT P6SM SKC
     FM251700 33005KT P6SM SKC=

Latest METAR

434
SAUS70 KWBC 250900 RRK
MTRPDK
METAR KPDK 250853Z AUTO 00000KT 8SM CLR 06/04 A3002 RMK AO2 SLP164
T00610044 56002 $


USA.gov is the U.S. government's official web portal to all federal, state and local government web resources and services.